sensor_id;sensor_type;location;lat;lon;timestamp;P1;durP1;ratioP1;P2;durP2;ratioP2
66761;SDS011;53672;48.176;16.338;2023-03-01T00:01:57;35.20;;;13.90;;
66761;SDS011;53672;48.176;16.338;2023-03-01T00:06:59;34.67;;;13.83;;
66761;SDS011;53672;48.176;16.338;2023-03-01T00:12:00;32.88;;;13.65;;
66761;SDS011;53672;48.176;16.338;2023-03-01T00:17:00;36.20;;;13.93;;
66761;SDS011;53672;48.176;16.338;2023-03-01T00:22:02;35.37;;;12.97;;
66761;SDS011;53672;48.176;16.338;2023-03-01T00:27:03;34.25;;;14.07;;
66761;SDS011;53672;48.176;16.338;2023-03-01T00:32:03;33.07;;;13.30;;
66761;SDS011;53672;48.176;16.338;2023-03-01T00:37:05;36.53;;;14.00;;
66761;SDS011;53672;48.176;16.338;2023-03-01T00:42:06;29.48;;;12.27;;
66761;SDS011;53672;48.176;16.338;2023-03-01T00:47:06;32.50;;;13.40;;
66761;SDS011;53672;48.176;16.338;2023-03-01T00:52:08;35.00;;;12.80;;
66761;SDS011;53672;48.176;16.338;2023-03-01T00:57:09;31.25;;;12.98;;
66761;SDS011;53672;48.176;16.338;2023-03-01T01:02:09;34.77;;;13.57;;
66761;SDS011;53672;48.176;16.338;2023-03-01T01:07:11;30.20;;;12.03;;
66761;SDS011;53672;48.176;16.338;2023-03-01T01:12:12;34.22;;;12.77;;
66761;SDS011;53672;48.176;16.338;2023-03-01T01:17:12;34.92;;;13.10;;
66761;SDS011;53672;48.176;16.338;2023-03-01T01:22:14;32.33;;;12.27;;
66761;SDS011;53672;48.176;16.338;2023-03-01T01:27:15;33.73;;;12.90;;
66761;SDS011;53672;48.176;16.338;2023-03-01T01:32:15;32.17;;;12.87;;
66761;SDS011;53672;48.176;16.338;2023-03-01T01:37:17;32.83;;;12.40;;
66761;SDS011;53672;48.176;16.338;2023-03-01T01:42:18;33.80;;;12.32;;
66761;SDS011;53672;48.176;16.338;2023-03-01T01:47:19;32.50;;;12.35;;
66761;SDS011;53672;48.176;16.338;2023-03-01T01:52:24;31.43;;;12.37;;
66761;SDS011;53672;48.176;16.338;2023-03-01T01:57:28;32.47;;;12.75;;
66761;SDS011;53672;48.176;16.338;2023-03-01T02:02:32;28.67;;;11.60;;
66761;SDS011;53672;48.176;16.338;2023-03-01T02:07:34;30.25;;;11.45;;
66761;SDS011;53672;48.176;16.338;2023-03-01T02:12:34;28.80;;;11.97;;
66761;SDS011;53672;48.176;16.338;2023-03-01T02:17:36;29.42;;;12.00;;
66761;SDS011;53672;48.176;16.338;2023-03-01T02:22:39;33.43;;;12.60;;
66761;SDS011;53672;48.176;16.338;2023-03-01T02:27:43;31.35;;;11.68;;
66761;SDS011;53672;48.176;16.338;2023-03-01T02:32:50;30.77;;;12.25;;
66761;SDS011;53672;48.176;16.338;2023-03-01T02:37:54;33.60;;;12.97;;
66761;SDS011;53672;48.176;16.338;2023-03-01T02:42:56;31.47;;;12.73;;
66761;SDS011;53672;48.176;16.338;2023-03-01T02:47:59;28.85;;;11.85;;
66761;SDS011;53672;48.176;16.338;2023-03-01T02:53:00;30.05;;;13.27;;
66761;SDS011;53672;48.176;16.338;2023-03-01T02:58:07;28.97;;;13.07;;
66761;SDS011;53672;48.176;16.338;2023-03-01T03:03:10;29.98;;;11.95;;
66761;SDS011;53672;48.176;16.338;2023-03-01T03:08:11;29.73;;;12.82;;
66761;SDS011;53672;48.176;16.338;2023-03-01T03:13:13;31.23;;;12.63;;
66761;SDS011;53672;48.176;16.338;2023-03-01T03:18:16;32.60;;;11.60;;
66761;SDS011;53672;48.176;16.338;2023-03-01T03:23:17;31.35;;;12.73;;
66761;SDS011;53672;48.176;16.338;2023-03-01T03:28:18;29.93;;;12.47;;
66761;SDS011;53672;48.176;16.338;2023-03-01T03:33:20;28.52;;;11.75;;
66761;SDS011;53672;48.176;16.338;2023-03-01T03:38:20;29.60;;;12.30;;
66761;SDS011;53672;48.176;16.338;2023-03-01T03:43:22;28.97;;;12.57;;
66761;SDS011;53672;48.176;16.338;2023-03-01T03:48:24;31.83;;;12.38;;
66761;SDS011;53672;48.176;16.338;2023-03-01T03:53:26;27.77;;;12.68;;
66761;SDS011;53672;48.176;16.338;2023-03-01T03:58:28;30.23;;;12.83;;
66761;SDS011;53672;48.176;16.338;2023-03-01T04:03:31;43.70;;;15.93;;
66761;SDS011;53672;48.176;16.338;2023-03-01T04:08:32;45.38;;;16.88;;
66761;SDS011;53672;48.176;16.338;2023-03-01T04:13:33;44.50;;;16.43;;
66761;SDS011;53672;48.176;16.338;2023-03-01T04:18:35;40.90;;;16.57;;
66761;SDS011;53672;48.176;16.338;2023-03-01T04:23:35;44.80;;;17.30;;
66761;SDS011;53672;48.176;16.338;2023-03-01T04:28:36;44.80;;;15.83;;
66761;SDS011;53672;48.176;16.338;2023-03-01T04:33:40;43.65;;;18.23;;
66761;SDS011;53672;48.176;16.338;2023-03-01T04:38:41;44.85;;;17.40;;
66761;SDS011;53672;48.176;16.338;2023-03-01T04:43:42;44.33;;;17.60;;
66761;SDS011;53672;48.176;16.338;2023-03-01T04:48:45;41.13;;;17.23;;
66761;SDS011;53672;48.176;16.338;2023-03-01T04:53:45;46.25;;;17.55;;
66761;SDS011;53672;48.176;16.338;2023-03-01T04:58:46;42.20;;;16.67;;
66761;SDS011;53672;48.176;16.338;2023-03-01T05:03:49;45.27;;;17.43;;
66761;SDS011;53672;48.176;16.338;2023-03-01T05:08:50;42.38;;;18.00;;
66761;SDS011;53672;48.176;16.338;2023-03-01T05:13:51;42.17;;;16.33;;
66761;SDS011;53672;48.176;16.338;2023-03-01T05:18:53;44.20;;;16.77;;
66761;SDS011;53672;48.176;16.338;2023-03-01T05:23:53;42.58;;;16.80;;
66761;SDS011;53672;48.176;16.338;2023-03-01T05:28:54;39.77;;;16.53;;
66761;SDS011;53672;48.176;16.338;2023-03-01T05:33:56;42.97;;;17.30;;
66761;SDS011;53672;48.176;16.338;2023-03-01T05:38:56;43.40;;;17.27;;
66761;SDS011;53672;48.176;16.338;2023-03-01T05:43:57;44.33;;;17.73;;
66761;SDS011;53672;48.176;16.338;2023-03-01T05:48:59;42.10;;;16.53;;
66761;SDS011;53672;48.176;16.338;2023-03-01T05:53:59;46.73;;;17.97;;
66761;SDS011;53672;48.176;16.338;2023-03-01T05:59:00;43.73;;;17.40;;
66761;SDS011;53672;48.176;16.338;2023-03-01T06:04:02;43.38;;;16.90;;
66761;SDS011;53672;48.176;16.338;2023-03-01T06:09:03;44.80;;;17.87;;
66761;SDS011;53672;48.176;16.338;2023-03-01T06:14:03;42.50;;;17.08;;
66761;SDS011;53672;48.176;16.338;2023-03-01T06:19:07;41.10;;;16.87;;
66761;SDS011;53672;48.176;16.338;2023-03-01T06:24:08;41.20;;;17.35;;
66761;SDS011;53672;48.176;16.338;2023-03-01T06:29:08;48.10;;;16.97;;
66761;SDS011;53672;48.176;16.338;2023-03-01T06:34:10;36.90;;;16.47;;
66761;SDS011;53672;48.176;16.338;2023-03-01T06:39:10;43.30;;;17.92;;
66761;SDS011;53672;48.176;16.338;2023-03-01T06:44:11;40.70;;;17.97;;
66761;SDS011;53672;48.176;16.338;2023-03-01T06:49:13;46.20;;;18.83;;
66761;SDS011;53672;48.176;16.338;2023-03-01T06:54:13;44.13;;;16.77;;
66761;SDS011;53672;48.176;16.338;2023-03-01T06:59:14;45.80;;;18.02;;
66761;SDS011;53672;48.176;16.338;2023-03-01T07:04:16;42.70;;;17.63;;
66761;SDS011;53672;48.176;16.338;2023-03-01T07:09:16;44.95;;;17.52;;
66761;SDS011;53672;48.176;16.338;2023-03-01T07:14:17;41.58;;;17.98;;
66761;SDS011;53672;48.176;16.338;2023-03-01T07:19:19;44.50;;;17.23;;
66761;SDS011;53672;48.176;16.338;2023-03-01T07:24:19;41.33;;;17.07;;
66761;SDS011;53672;48.176;16.338;2023-03-01T07:29:20;42.73;;;17.80;;
66761;SDS011;53672;48.176;16.338;2023-03-01T07:34:22;42.78;;;17.52;;
66761;SDS011;53672;48.176;16.338;2023-03-01T07:39:22;41.65;;;16.98;;
66761;SDS011;53672;48.176;16.338;2023-03-01T07:44:24;39.15;;;17.02;;
66761;SDS011;53672;48.176;16.338;2023-03-01T07:49:26;44.03;;;17.73;;
66761;SDS011;53672;48.176;16.338;2023-03-01T07:54:26;43.58;;;17.27;;
66761;SDS011;53672;48.176;16.338;2023-03-01T07:59:27;41.78;;;17.13;;
66761;SDS011;53672;48.176;16.338;2023-03-01T08:04:29;43.20;;;18.33;;
66761;SDS011;53672;48.176;16.338;2023-03-01T08:09:29;51.03;;;18.67;;
66761;SDS011;53672;48.176;16.338;2023-03-01T08:14:30;42.65;;;18.17;;
66761;SDS011;53672;48.176;16.338;2023-03-01T08:19:32;45.97;;;17.08;;
66761;SDS011;53672;48.176;16.338;2023-03-01T08:24:32;43.03;;;19.20;;
66761;SDS011;53672;48.176;16.338;2023-03-01T08:29:33;49.30;;;18.30;;
66761;SDS011;53672;48.176;16.338;2023-03-01T08:34:35;44.83;;;19.92;;
66761;SDS011;53672;48.176;16.338;2023-03-01T08:39:35;48.13;;;20.42;;
66761;SDS011;53672;48.176;16.338;2023-03-01T08:44:36;49.08;;;20.25;;
66761;SDS011;53672;48.176;16.338;2023-03-01T08:49:38;48.07;;;19.83;;
66761;SDS011;53672;48.176;16.338;2023-03-01T08:54:38;46.20;;;20.42;;
66761;SDS011;53672;48.176;16.338;2023-03-01T08:59:39;45.15;;;20.17;;
66761;SDS011;53672;48.176;16.338;2023-03-01T09:04:41;44.03;;;19.00;;
66761;SDS011;53672;48.176;16.338;2023-03-01T09:09:41;43.87;;;20.00;;
66761;SDS011;53672;48.176;16.338;2023-03-01T09:14:42;41.33;;;19.05;;
66761;SDS011;53672;48.176;16.338;2023-03-01T09:19:44;41.97;;;19.80;;
66761;SDS011;53672;48.176;16.338;2023-03-01T09:24:44;39.17;;;18.30;;
66761;SDS011;53672;48.176;16.338;2023-03-01T09:29:45;43.10;;;19.33;;
66761;SDS011;53672;48.176;16.338;2023-03-01T09:34:47;36.53;;;17.85;;
66761;SDS011;53672;48.176;16.338;2023-03-01T09:39:47;36.10;;;18.25;;
66761;SDS011;53672;48.176;16.338;2023-03-01T09:44:49;35.33;;;17.77;;
66761;SDS011;53672;48.176;16.338;2023-03-01T09:49:57;37.63;;;18.13;;
66761;SDS011;53672;48.176;16.338;2023-03-01T09:55:04;33.23;;;15.87;;
66761;SDS011;53672;48.176;16.338;2023-03-01T10:00:13;36.78;;;17.02;;
66761;SDS011;53672;48.176;16.338;2023-03-01T10:05:27;31.15;;;15.55;;
66761;SDS011;53672;48.176;16.338;2023-03-01T10:10:44;32.47;;;15.00;;
66761;SDS011;53672;48.176;16.338;2023-03-01T10:15:47;32.97;;;15.90;;
66761;SDS011;53672;48.176;16.338;2023-03-01T10:20:53;33.03;;;15.20;;
66761;SDS011;53672;48.176;16.338;2023-03-01T10:26:03;31.05;;;15.00;;
66761;SDS011;53672;48.176;16.338;2023-03-01T10:31:24;33.90;;;15.02;;
66761;SDS011;53672;48.176;16.338;2023-03-01T10:36:29;32.20;;;14.47;;
66761;SDS011;53672;48.176;16.338;2023-03-01T10:41:33;28.02;;;13.63;;
66761;SDS011;53672;48.176;16.338;2023-03-01T10:46:40;30.23;;;15.10;;
66761;SDS011;53672;48.176;16.338;2023-03-01T10:51:42;30.50;;;14.60;;
66761;SDS011;53672;48.176;16.338;2023-03-01T10:56:48;31.27;;;14.25;;
66761;SDS011;53672;48.176;16.338;2023-03-01T11:02:01;26.40;;;14.00;;
66761;SDS011;53672;48.176;16.338;2023-03-01T11:07:17;28.67;;;14.10;;
66761;SDS011;53672;48.176;16.338;2023-03-01T11:12:17;28.52;;;13.27;;
66761;SDS011;53672;48.176;16.338;2023-03-01T11:17:20;26.57;;;14.03;;
66761;SDS011;53672;48.176;16.338;2023-03-01T11:22:26;25.95;;;12.70;;
66761;SDS011;53672;48.176;16.338;2023-03-01T11:27:28;22.65;;;12.13;;
66761;SDS011;53672;48.176;16.338;2023-03-01T11:32:33;23.83;;;12.13;;
66761;SDS011;53672;48.176;16.338;2023-03-01T11:37:56;23.67;;;12.63;;
66761;SDS011;53672;48.176;16.338;2023-03-01T11:43:11;23.13;;;12.33;;
66761;SDS011;53672;48.176;16.338;2023-03-01T11:48:28;26.20;;;13.00;;
66761;SDS011;53672;48.176;16.338;2023-03-01T11:53:49;24.85;;;12.90;;
66761;SDS011;53672;48.176;16.338;2023-03-01T11:59:16;29.48;;;14.02;;
66761;SDS011;53672;48.176;16.338;2023-03-01T12:04:35;32.38;;;14.50;;
66761;SDS011;53672;48.176;16.338;2023-03-01T12:10:02;26.87;;;12.40;;
66761;SDS011;53672;48.176;16.338;2023-03-01T12:15:25;23.13;;;11.82;;
66761;SDS011;53672;48.176;16.338;2023-03-01T12:20:45;28.15;;;12.23;;
66761;SDS011;53672;48.176;16.338;2023-03-01T12:25:56;24.13;;;11.40;;
66761;SDS011;53672;48.176;16.338;2023-03-01T12:31:29;26.38;;;11.40;;
66761;SDS011;53672;48.176;16.338;2023-03-01T12:36:49;22.93;;;10.93;;
66761;SDS011;53672;48.176;16.338;2023-03-01T12:42:03;22.25;;;10.35;;
66761;SDS011;53672;48.176;16.338;2023-03-01T12:47:14;27.88;;;12.60;;
66761;SDS011;53672;48.176;16.338;2023-03-01T12:52:24;25.10;;;11.90;;
66761;SDS011;53672;48.176;16.338;2023-03-01T12:57:34;26.25;;;11.93;;
66761;SDS011;53672;48.176;16.338;2023-03-01T13:02:40;25.37;;;11.67;;
66761;SDS011;53672;48.176;16.338;2023-03-01T13:07:49;25.40;;;11.95;;
66761;SDS011;53672;48.176;16.338;2023-03-01T13:18:29;22.70;;;10.80;;
66761;SDS011;53672;48.176;16.338;2023-03-01T13:23:33;25.77;;;12.25;;
66761;SDS011;53672;48.176;16.338;2023-03-01T13:28:41;26.93;;;12.77;;
66761;SDS011;53672;48.176;16.338;2023-03-01T13:33:51;26.95;;;12.45;;
66761;SDS011;53672;48.176;16.338;2023-03-01T13:38:55;28.33;;;13.30;;
66761;SDS011;53672;48.176;16.338;2023-03-01T13:43:58;27.25;;;13.52;;
66761;SDS011;53672;48.176;16.338;2023-03-01T13:48:59;27.50;;;12.65;;
66761;SDS011;53672;48.176;16.338;2023-03-01T13:54:00;24.90;;;12.37;;
66761;SDS011;53672;48.176;16.338;2023-03-01T13:59:03;27.05;;;12.93;;
66761;SDS011;53672;48.176;16.338;2023-03-01T14:04:17;28.23;;;12.57;;
66761;SDS011;53672;48.176;16.338;2023-03-01T14:09:20;28.33;;;14.07;;
66761;SDS011;53672;48.176;16.338;2023-03-01T14:19:54;24.75;;;12.18;;
66761;SDS011;53672;48.176;16.338;2023-03-01T14:24:57;25.20;;;12.30;;
66761;SDS011;53672;48.176;16.338;2023-03-01T14:30:02;26.73;;;12.65;;
66761;SDS011;53672;48.176;16.338;2023-03-01T14:35:18;25.65;;;13.00;;
66761;SDS011;53672;48.176;16.338;2023-03-01T14:40:22;30.33;;;13.97;;
66761;SDS011;53672;48.176;16.338;2023-03-01T14:45:27;28.63;;;12.38;;
66761;SDS011;53672;48.176;16.338;2023-03-01T14:50:30;26.17;;;12.68;;
66761;SDS011;53672;48.176;16.338;2023-03-01T14:55:32;27.13;;;13.05;;
66761;SDS011;53672;48.176;16.338;2023-03-01T15:00:37;27.27;;;13.00;;
66761;SDS011;53672;48.176;16.338;2023-03-01T15:05:38;28.60;;;13.13;;
66761;SDS011;53672;48.176;16.338;2023-03-01T15:10:40;26.83;;;12.88;;
66761;SDS011;53672;48.176;16.338;2023-03-01T15:16:01;27.42;;;14.10;;
66761;SDS011;53672;48.176;16.338;2023-03-01T15:21:05;29.23;;;14.77;;
66761;SDS011;53672;48.176;16.338;2023-03-01T15:26:17;30.20;;;14.93;;
66761;SDS011;53672;48.176;16.338;2023-03-01T15:31:25;30.97;;;14.73;;
66761;SDS011;53672;48.176;16.338;2023-03-01T15:36:31;32.67;;;14.75;;
66761;SDS011;53672;48.176;16.338;2023-03-01T15:41:38;30.23;;;15.23;;
66761;SDS011;53672;48.176;16.338;2023-03-01T15:46:48;35.13;;;14.93;;
66761;SDS011;53672;48.176;16.338;2023-03-01T15:51:49;32.10;;;14.35;;
66761;SDS011;53672;48.176;16.338;2023-03-01T15:56:49;29.90;;;14.80;;
66761;SDS011;53672;48.176;16.338;2023-03-01T16:01:51;32.00;;;14.60;;
66761;SDS011;53672;48.176;16.338;2023-03-01T16:06:52;32.58;;;14.43;;
66761;SDS011;53672;48.176;16.338;2023-03-01T16:11:53;32.65;;;14.80;;
66761;SDS011;53672;48.176;16.338;2023-03-01T16:16:56;32.65;;;14.77;;
66761;SDS011;53672;48.176;16.338;2023-03-01T16:21:56;33.63;;;14.57;;
66761;SDS011;53672;48.176;16.338;2023-03-01T16:26:57;33.83;;;15.03;;
66761;SDS011;53672;48.176;16.338;2023-03-01T16:32:01;32.20;;;14.23;;
66761;SDS011;53672;48.176;16.338;2023-03-01T16:37:02;33.28;;;13.80;;
66761;SDS011;53672;48.176;16.338;2023-03-01T16:42:03;32.30;;;14.20;;
66761;SDS011;53672;48.176;16.338;2023-03-01T16:47:06;33.13;;;13.10;;
66761;SDS011;53672;48.176;16.338;2023-03-01T16:52:07;31.52;;;14.07;;
66761;SDS011;53672;48.176;16.338;2023-03-01T16:57:10;31.17;;;13.70;;
66761;SDS011;53672;48.176;16.338;2023-03-01T17:02:12;31.20;;;13.60;;
66761;SDS011;53672;48.176;16.338;2023-03-01T17:07:13;29.37;;;13.37;;
66761;SDS011;53672;48.176;16.338;2023-03-01T17:12:15;32.03;;;14.52;;
66761;SDS011;53672;48.176;16.338;2023-03-01T17:17:17;31.30;;;14.10;;
66761;SDS011;53672;48.176;16.338;2023-03-01T17:22:18;29.90;;;12.95;;
66761;SDS011;53672;48.176;16.338;2023-03-01T17:27:19;32.47;;;14.02;;
66761;SDS011;53672;48.176;16.338;2023-03-01T17:32:24;28.52;;;13.63;;
66761;SDS011;53672;48.176;16.338;2023-03-01T17:37:25;31.45;;;13.65;;
66761;SDS011;53672;48.176;16.338;2023-03-01T17:42:26;32.43;;;13.90;;
66761;SDS011;53672;48.176;16.338;2023-03-01T17:47:29;31.33;;;13.68;;
66761;SDS011;53672;48.176;16.338;2023-03-01T17:52:30;29.67;;;14.07;;
66761;SDS011;53672;48.176;16.338;2023-03-01T17:57:31;32.83;;;14.50;;
66761;SDS011;53672;48.176;16.338;2023-03-01T18:02:33;32.83;;;13.73;;
66761;SDS011;53672;48.176;16.338;2023-03-01T18:07:34;34.00;;;13.90;;
66761;SDS011;53672;48.176;16.338;2023-03-01T18:12:35;35.25;;;14.80;;
66761;SDS011;53672;48.176;16.338;2023-03-01T18:17:37;35.50;;;15.07;;
66761;SDS011;53672;48.176;16.338;2023-03-01T18:22:38;37.33;;;15.13;;
66761;SDS011;53672;48.176;16.338;2023-03-01T18:27:38;33.93;;;14.57;;
66761;SDS011;53672;48.176;16.338;2023-03-01T18:32:42;34.25;;;14.48;;
66761;SDS011;53672;48.176;16.338;2023-03-01T18:37:45;40.67;;;15.63;;
66761;SDS011;53672;48.176;16.338;2023-03-01T18:42:48;38.67;;;16.35;;
66761;SDS011;53672;48.176;16.338;2023-03-01T18:47:50;38.53;;;15.30;;
66761;SDS011;53672;48.176;16.338;2023-03-01T18:52:51;36.40;;;15.00;;
66761;SDS011;53672;48.176;16.338;2023-03-01T18:57:53;36.47;;;15.25;;
66761;SDS011;53672;48.176;16.338;2023-03-01T19:02:56;38.60;;;15.43;;
66761;SDS011;53672;48.176;16.338;2023-03-01T19:07:57;38.85;;;15.32;;
66761;SDS011;53672;48.176;16.338;2023-03-01T19:12:58;38.47;;;15.10;;
66761;SDS011;53672;48.176;16.338;2023-03-01T19:18:01;58.80;;;19.45;;
66761;SDS011;53672;48.176;16.338;2023-03-01T19:23:02;48.63;;;19.33;;
66761;SDS011;53672;48.176;16.338;2023-03-01T19:28:03;42.92;;;18.42;;
66761;SDS011;53672;48.176;16.338;2023-03-01T19:33:05;50.90;;;19.77;;
66761;SDS011;53672;48.176;16.338;2023-03-01T19:38:06;45.78;;;18.77;;
66761;SDS011;53672;48.176;16.338;2023-03-01T19:43:09;48.92;;;19.52;;
66761;SDS011;53672;48.176;16.338;2023-03-01T19:48:12;45.38;;;17.88;;
66761;SDS011;53672;48.176;16.338;2023-03-01T19:53:13;44.38;;;18.35;;
66761;SDS011;53672;48.176;16.338;2023-03-01T19:58:15;43.90;;;18.23;;
66761;SDS011;53672;48.176;16.338;2023-03-01T20:03:19;43.80;;;17.48;;
66761;SDS011;53672;48.176;16.338;2023-03-01T20:08:20;44.13;;;17.08;;
66761;SDS011;53672;48.176;16.338;2023-03-01T20:13:21;39.47;;;16.65;;
66761;SDS011;53672;48.176;16.338;2023-03-01T20:18:24;40.88;;;17.55;;
66761;SDS011;53672;48.176;16.338;2023-03-01T20:23:25;42.00;;;16.77;;
66761;SDS011;53672;48.176;16.338;2023-03-01T20:28:28;43.65;;;18.80;;
66761;SDS011;53672;48.176;16.338;2023-03-01T20:33:31;49.17;;;18.93;;
66761;SDS011;53672;48.176;16.338;2023-03-01T20:38:33;45.60;;;19.20;;
66761;SDS011;53672;48.176;16.338;2023-03-01T20:43:35;41.58;;;18.38;;
66761;SDS011;53672;48.176;16.338;2023-03-01T20:48:38;45.37;;;17.33;;
66761;SDS011;53672;48.176;16.338;2023-03-01T20:53:40;42.50;;;17.20;;
66761;SDS011;53672;48.176;16.338;2023-03-01T20:58:41;44.87;;;17.57;;
66761;SDS011;53672;48.176;16.338;2023-03-01T21:03:47;44.80;;;17.70;;
66761;SDS011;53672;48.176;16.338;2023-03-01T21:08:48;44.50;;;18.20;;
66761;SDS011;53672;48.176;16.338;2023-03-01T21:13:49;39.90;;;17.93;;
66761;SDS011;53672;48.176;16.338;2023-03-01T21:18:51;38.93;;;17.23;;
66761;SDS011;53672;48.176;16.338;2023-03-01T21:23:52;42.08;;;17.20;;
66761;SDS011;53672;48.176;16.338;2023-03-01T21:28:53;42.00;;;17.87;;
66761;SDS011;53672;48.176;16.338;2023-03-01T21:33:57;40.65;;;16.88;;
66761;SDS011;53672;48.176;16.338;2023-03-01T21:38:59;40.17;;;17.60;;
66761;SDS011;53672;48.176;16.338;2023-03-01T21:44:00;38.97;;;16.67;;
66761;SDS011;53672;48.176;16.338;2023-03-01T21:49:04;40.30;;;17.00;;
66761;SDS011;53672;48.176;16.338;2023-03-01T21:54:06;38.45;;;16.80;;
66761;SDS011;53672;48.176;16.338;2023-03-01T21:59:09;48.90;;;18.05;;
66761;SDS011;53672;48.176;16.338;2023-03-01T22:04:15;41.17;;;17.97;;
66761;SDS011;53672;48.176;16.338;2023-03-01T22:09:17;47.03;;;18.75;;
66761;SDS011;53672;48.176;16.338;2023-03-01T22:14:20;53.67;;;20.97;;
66761;SDS011;53672;48.176;16.338;2023-03-01T22:19:22;55.15;;;23.02;;
66761;SDS011;53672;48.176;16.338;2023-03-01T22:24:23;61.00;;;23.13;;
66761;SDS011;53672;48.176;16.338;2023-03-01T22:29:25;55.60;;;21.77;;
66761;SDS011;53672;48.176;16.338;2023-03-01T22:34:29;60.08;;;23.02;;
66761;SDS011;53672;48.176;16.338;2023-03-01T22:39:29;56.57;;;22.93;;
66761;SDS011;53672;48.176;16.338;2023-03-01T22:44:30;52.95;;;22.65;;
66761;SDS011;53672;48.176;16.338;2023-03-01T22:49:32;57.97;;;21.93;;
66761;SDS011;53672;48.176;16.338;2023-03-01T22:54:33;60.70;;;22.60;;
66761;SDS011;53672;48.176;16.338;2023-03-01T22:59:33;56.93;;;23.13;;
66761;SDS011;53672;48.176;16.338;2023-03-01T23:04:35;58.17;;;22.17;;
66761;SDS011;53672;48.176;16.338;2023-03-01T23:09:36;57.72;;;23.02;;
66761;SDS011;53672;48.176;16.338;2023-03-01T23:14:36;63.73;;;23.43;;
66761;SDS011;53672;48.176;16.338;2023-03-01T23:19:38;59.63;;;23.20;;
66761;SDS011;53672;48.176;16.338;2023-03-01T23:24:39;61.05;;;24.38;;
66761;SDS011;53672;48.176;16.338;2023-03-01T23:29:39;60.80;;;23.83;;
66761;SDS011;53672;48.176;16.338;2023-03-01T23:34:41;63.93;;;24.53;;
66761;SDS011;53672;48.176;16.338;2023-03-01T23:39:42;59.97;;;25.65;;
66761;SDS011;53672;48.176;16.338;2023-03-01T23:44:43;59.83;;;25.23;;
66761;SDS011;53672;48.176;16.338;2023-03-01T23:49:45;64.30;;;24.73;;
66761;SDS011;53672;48.176;16.338;2023-03-01T23:54:45;61.25;;;24.05;;
66761;SDS011;53672;48.176;16.338;2023-03-01T23:59:46;59.63;;;24.50;;
